Time;durP1;ratioP1;P1;durP2;ratioP2;P2;SDS_P1;SDS_P2;PMS_P1;PMS_P2;Temp;Humidity;BMP_temperature;BMP_pressure;BME280_temperature;BME280_humidity;BME280_pressure;Samples;Min_cycle;Max_cycle;Signal;HPM_P1;HPM_P2
2023/03/06 00:01:17;;;;;;;20.63;12.50;;;4.90;99.90;;;;;;5093388;28;20215;-55
2023/03/06 00:03:44;;;;;;;21.30;11.87;;;4.80;99.90;;;;;;5093296;28;20243;-55
2023/03/06 00:06:11;;;;;;;19.00;11.43;;;4.80;99.90;;;;;;5093578;28;20204;-55
2023/03/06 00:08:39;;;;;;;20.67;12.77;;;4.80;99.90;;;;;;5093810;28;20207;-56
2023/03/06 00:11:06;;;;;;;25.20;13.07;;;4.80;99.90;;;;;;5093662;28;20204;-55
2023/03/06 00:13:33;;;;;;;19.13;12.27;;;5.00;99.90;;;;;;5093075;28;20243;-55
2023/03/06 00:16:00;;;;;;;18.47;11.63;;;5.20;99.90;;;;;;5093398;28;20208;-56
2023/03/06 00:18:27;;;;;;;21.27;11.87;;;5.20;99.90;;;;;;5093356;28;20719;-55
2023/03/06 00:20:54;;;;;;;20.30;12.83;;;5.30;99.90;;;;;;5093397;28;20310;-55
2023/03/06 00:23:21;;;;;;;19.27;12.13;;;5.30;99.90;;;;;;5092875;28;20211;-55
2023/03/06 00:25:49;;;;;;;20.20;12.03;;;5.20;99.90;;;;;;5093116;28;20228;-54
2023/03/06 00:28:16;;;;;;;22.70;12.20;;;5.10;99.90;;;;;;5093317;28;20200;-54
2023/03/06 00:30:44;;;;;;;21.77;12.60;;;5.10;99.90;;;;;;5093277;28;20200;-53
2023/03/06 00:33:11;;;;;;;19.30;12.27;;;5.10;99.90;;;;;;5093076;28;20208;-54
2023/03/06 00:35:38;;;;;;;22.07;12.90;;;5.20;99.90;;;;;;5093001;28;20228;-54
2023/03/06 00:38:05;;;;;;;19.00;11.90;;;5.30;99.90;;;;;;5093108;28;20207;-54
2023/03/06 00:40:32;;;;;;;19.33;12.20;;;5.40;99.90;;;;;;5093042;28;20200;-54
2023/03/06 00:43:00;;;;;;;20.33;12.67;;;5.30;99.90;;;;;;5092793;28;20214;-54
2023/03/06 00:45:27;;;;;;;19.43;11.93;;;5.20;99.90;;;;;;5093065;28;20231;-53
2023/03/06 00:47:54;;;;;;;21.57;11.73;;;5.10;99.90;;;;;;5092744;28;20204;-54
2023/03/06 00:50:21;;;;;;;21.37;12.30;;;5.10;99.90;;;;;;5092703;28;20208;-54
2023/03/06 00:52:48;;;;;;;19.57;12.80;;;5.10;99.90;;;;;;5092759;28;20200;-54
2023/03/06 00:55:15;;;;;;;21.10;11.67;;;5.20;99.90;;;;;;5092465;28;20239;-54
2023/03/06 00:57:41;;;;;;;19.23;11.47;;;5.20;99.90;;;;;;5092560;28;20210;-54
2023/03/06 01:00:13;;;;;;;18.87;12.13;;;5.30;99.90;;;;;;5092758;28;20250;-54
2023/03/06 01:02:39;;;;;;;19.30;12.33;;;5.30;99.90;;;;;;5092541;28;20196;-53
2023/03/06 01:05:07;;;;;;;20.10;12.03;;;5.30;99.90;;;;;;5092582;28;20232;-54
2023/03/06 01:07:35;;;;;;;17.83;12.30;;;5.40;99.90;;;;;;5092552;28;20206;-54
2023/03/06 01:10:03;;;;;;;19.93;12.67;;;5.40;99.90;;;;;;5092382;28;20208;-54
2023/03/06 01:12:29;;;;;;;19.23;12.27;;;5.40;99.90;;;;;;5092311;28;20196;-54
2023/03/06 01:14:56;;;;;;;19.40;11.83;;;5.30;99.90;;;;;;5092614;28;20242;-54
2023/03/06 01:17:24;;;;;;;17.37;11.53;;;5.20;99.90;;;;;;5092411;28;20290;-54
2023/03/06 01:19:51;;;;;;;16.80;11.77;;;5.20;99.90;;;;;;5092376;28;20228;-54
2023/03/06 01:22:18;;;;;;;20.93;12.00;;;5.20;99.90;;;;;;5092267;28;20216;-54
2023/03/06 01:24:45;;;;;;;18.97;12.20;;;5.20;99.90;;;;;;5092147;28;20234;-55
2023/03/06 01:27:12;;;;;;;21.53;13.30;;;5.30;99.90;;;;;;5092123;28;20628;-54
2023/03/06 01:29:39;;;;;;;23.93;12.67;;;5.30;99.90;;;;;;5092454;28;20210;-54
2023/03/06 01:32:06;;;;;;;22.27;12.53;;;5.30;99.90;;;;;;5092106;28;20207;-54
2023/03/06 01:34:34;;;;;;;19.27;11.63;;;5.30;99.90;;;;;;5094756;28;20231;-54
2023/03/06 01:37:01;;;;;;;17.50;11.07;;;5.30;99.90;;;;;;5096296;28;20204;-54
2023/03/06 01:39:30;;;;;;;22.47;11.50;;;5.40;99.90;;;;;;5096080;28;20235;-54
2023/03/06 01:41:57;;;;;;;21.97;12.23;;;5.40;99.90;;;;;;5096486;28;20204;-54
2023/03/06 01:44:24;;;;;;;17.60;11.23;;;5.50;99.90;;;;;;5096135;28;20224;-54
2023/03/06 01:46:51;;;;;;;18.47;11.77;;;5.60;99.90;;;;;;5096141;28;20192;-54
2023/03/06 01:49:21;;;;;;;20.77;11.37;;;5.70;99.90;;;;;;5096071;28;20200;-55
2023/03/06 01:51:54;;;;;;;19.00;12.00;;;5.80;99.90;;;;;;5096384;28;20273;-55
2023/03/06 01:54:25;;;;;;;18.77;11.43;;;5.80;99.90;;;;;;5095862;28;20236;-54
2023/03/06 01:56:56;;;;;;;22.33;10.70;;;5.90;99.90;;;;;;5096068;28;20253;-54
2023/03/06 01:59:25;;;;;;;16.83;10.80;;;5.90;99.90;;;;;;5096020;28;20220;-55
2023/03/06 02:01:53;;;;;;;18.53;11.53;;;5.90;99.90;;;;;;5095923;28;20254;-54
2023/03/06 02:04:20;;;;;;;18.33;11.67;;;6.00;99.90;;;;;;5095651;28;20643;-54
2023/03/06 02:06:48;;;;;;;19.17;11.40;;;5.90;99.90;;;;;;5095985;28;20211;-54
2023/03/06 02:09:16;;;;;;;15.63;10.73;;;5.90;99.90;;;;;;5095898;28;20211;-54
2023/03/06 02:11:44;;;;;;;18.63;11.90;;;6.00;99.90;;;;;;5095703;28;20204;-54
2023/03/06 02:14:14;;;;;;;16.27;11.90;;;6.00;99.90;;;;;;5095622;28;20235;-54
2023/03/06 02:16:42;;;;;;;18.93;11.43;;;6.00;99.90;;;;;;5095721;28;20609;-54
2023/03/06 02:19:20;;;;;;;21.27;12.10;;;6.00;99.90;;;;;;5095425;28;20230;-54
2023/03/06 02:21:47;;;;;;;15.87;11.23;;;6.00;99.90;;;;;;5095721;28;20246;-54
2023/03/06 02:24:26;;;;;;;18.60;12.03;;;5.90;99.90;;;;;;5095233;28;20707;-54
2023/03/06 02:26:55;;;;;;;18.90;11.30;;;5.90;99.90;;;;;;5095622;28;20227;-55
2023/03/06 02:29:29;;;;;;;18.43;11.77;;;6.00;99.90;;;;;;5095167;28;20295;-54
2023/03/06 02:31:56;;;;;;;18.73;10.97;;;6.10;99.90;;;;;;5095294;28;20672;-54
2023/03/06 02:34:48;;;;;;;19.53;11.63;;;6.00;99.90;;;;;;5094960;28;20212;-55
2023/03/06 02:37:15;;;;;;;21.20;12.03;;;6.00;99.90;;;;;;5095265;28;20208;-55
2023/03/06 02:39:46;;;;;;;18.13;11.20;;;5.90;99.90;;;;;;5095186;28;20281;-54
2023/03/06 02:42:19;;;;;;;18.03;10.57;;;5.90;99.90;;;;;;5095437;28;20291;-54
2023/03/06 02:44:46;;;;;;;19.07;11.60;;;5.90;99.90;;;;;;5093905;28;20688;-54
2023/03/06 02:47:13;;;;;;;18.97;11.70;;;5.90;99.90;;;;;;5094873;28;20200;-55
2023/03/06 02:49:40;;;;;;;18.23;11.60;;;5.90;99.90;;;;;;5095139;28;20204;-54
2023/03/06 02:52:09;;;;;;;27.83;16.63;;;6.00;99.90;;;;;;5095124;28;20257;-54
2023/03/06 02:54:36;;;;;;;23.10;13.07;;;6.00;99.90;;;;;;5095370;28;20247;-54
2023/03/06 02:57:03;;;;;;;26.63;15.07;;;6.00;99.90;;;;;;5095047;28;20204;-53
2023/03/06 02:59:31;;;;;;;29.40;16.53;;;5.90;99.90;;;;;;5094785;28;20695;-54
2023/03/06 03:01:58;;;;;;;26.90;16.30;;;5.90;99.90;;;;;;5094817;28;20680;-54
2023/03/06 03:04:25;;;;;;;22.60;14.77;;;5.80;99.90;;;;;;5094714;28;20232;-54
2023/03/06 03:06:52;;;;;;;23.73;14.33;;;5.80;99.90;;;;;;5094627;28;20210;-54
2023/03/06 03:09:19;;;;;;;23.37;13.97;;;5.80;99.90;;;;;;5094670;28;20200;-54
2023/03/06 03:11:45;;;;;;;23.73;14.17;;;5.80;99.90;;;;;;5094696;28;20212;-55
2023/03/06 03:14:12;;;;;;;25.37;15.53;;;5.80;99.90;;;;;;5094468;28;20251;-54
2023/03/06 03:16:40;;;;;;;24.83;15.60;;;5.70;99.90;;;;;;5094500;28;20210;-54
2023/03/06 03:19:07;;;;;;;24.53;15.47;;;5.60;99.90;;;;;;5094515;28;20204;-54
2023/03/06 03:21:34;;;;;;;23.70;15.47;;;5.70;99.90;;;;;;5094327;28;20232;-54
2023/03/06 03:24:01;;;;;;;25.03;14.87;;;5.70;99.90;;;;;;5094052;28;20235;-54
2023/03/06 03:26:28;;;;;;;21.83;14.43;;;5.70;99.90;;;;;;5094438;28;20640;-54
2023/03/06 03:28:54;;;;;;;20.37;13.47;;;5.70;99.90;;;;;;5094076;28;20254;-55
2023/03/06 03:31:21;;;;;;;20.13;13.20;;;5.80;99.90;;;;;;5094330;28;20266;-54
2023/03/06 03:33:49;;;;;;;19.90;12.77;;;5.80;99.90;;;;;;5094147;28;20234;-55
2023/03/06 03:36:16;;;;;;;18.97;12.37;;;5.80;99.90;;;;;;5094213;28;20204;-55
2023/03/06 03:38:43;;;;;;;20.77;13.10;;;5.80;99.90;;;;;;5094161;28;20208;-54
2023/03/06 03:41:10;;;;;;;20.50;12.30;;;5.90;99.90;;;;;;5094005;28;20269;-54
2023/03/06 03:43:37;;;;;;;19.00;12.40;;;5.90;99.90;;;;;;5093803;28;20290;-54
2023/03/06 03:46:04;;;;;;;20.13;13.07;;;5.90;99.90;;;;;;5093894;28;20555;-57
2023/03/06 03:48:31;;;;;;;18.80;12.07;;;5.90;99.90;;;;;;5093928;28;20678;-55
2023/03/06 03:51:04;;;;;;;21.63;13.23;;;5.80;99.90;;;;;;5093794;28;20196;-54
2023/03/06 03:53:31;;;;;;;19.60;11.87;;;5.90;99.90;;;;;;5093333;28;20208;-54
2023/03/06 03:55:58;;;;;;;20.77;12.97;;;5.90;99.90;;;;;;5093712;28;20271;-55
2023/03/06 03:58:25;;;;;;;21.00;11.53;;;5.90;99.90;;;;;;5093517;28;20588;-55
2023/03/06 04:00:52;;;;;;;20.17;11.73;;;5.80;99.90;;;;;;5094173;28;20220;-58
2023/03/06 04:03:19;;;;;;;19.93;12.27;;;5.90;99.90;;;;;;5093916;28;20244;-55
2023/03/06 04:05:46;;;;;;;19.50;12.33;;;5.80;99.90;;;;;;5093362;28;20672;-55
2023/03/06 04:08:14;;;;;;;18.93;10.80;;;5.80;99.90;;;;;;5093605;28;20251;-56
2023/03/06 04:10:41;;;;;;;19.10;11.50;;;5.80;99.90;;;;;;5093539;28;20236;-56
2023/03/06 04:13:08;;;;;;;17.97;11.63;;;5.80;99.90;;;;;;5093295;28;20208;-55
2023/03/06 04:15:35;;;;;;;16.93;11.17;;;5.80;99.90;;;;;;5093125;28;20227;-55
2023/03/06 04:18:02;;;;;;;18.37;11.73;;;5.80;99.90;;;;;;5093426;28;20315;-56
2023/03/06 04:20:29;;;;;;;18.70;10.93;;;5.80;99.90;;;;;;5093231;28;20265;-56
2023/03/06 04:22:55;;;;;;;19.57;12.10;;;5.80;99.90;;;;;;5093380;28;20235;-55
2023/03/06 04:25:23;;;;;;;17.53;11.53;;;5.70;99.90;;;;;;5093427;28;20240;-55
2023/03/06 04:27:50;;;;;;;16.50;11.17;;;5.60;99.90;;;;;;5093399;28;20219;-55
2023/03/06 04:30:17;;;;;;;19.03;10.50;;;5.60;99.90;;;;;;5093252;28;20211;-55
2023/03/06 04:32:44;;;;;;;22.13;12.63;;;5.60;99.90;;;;;;5092747;28;20659;-55
2023/03/06 04:35:11;;;;;;;19.90;12.77;;;5.60;99.90;;;;;;5093077;28;20224;-55
2023/03/06 04:37:38;;;;;;;36.17;21.73;;;5.60;99.90;;;;;;5092969;28;20212;-55
2023/03/06 04:40:08;;;;;;;34.90;22.03;;;5.60;99.90;;;;;;5092811;28;20224;-55
2023/03/06 04:42:36;;;;;;;31.73;20.73;;;5.60;99.90;;;;;;5092641;28;20710;-55
2023/03/06 04:45:03;;;;;;;31.93;19.07;;;5.70;99.90;;;;;;5092672;28;20322;-54
2023/03/06 04:47:30;;;;;;;18.93;12.43;;;5.70;99.90;;;;;;5092901;28;20212;-54
2023/03/06 04:49:56;;;;;;;21.73;14.27;;;5.80;99.90;;;;;;5092753;28;20585;-54
2023/03/06 04:52:23;;;;;;;22.60;12.10;;;5.90;99.90;;;;;;5092614;28;20204;-57
2023/03/06 04:54:50;;;;;;;16.73;10.50;;;5.90;99.90;;;;;;5092493;28;20232;-54
2023/03/06 04:57:17;;;;;;;19.23;12.00;;;5.90;99.90;;;;;;5092687;28;20299;-54
2023/03/06 04:59:45;;;;;;;16.43;10.90;;;5.90;99.90;;;;;;5092454;28;20220;-54
2023/03/06 05:02:12;;;;;;;14.07;9.73;;;5.90;99.90;;;;;;5092850;28;20208;-54
2023/03/06 05:04:39;;;;;;;16.07;10.23;;;5.90;99.90;;;;;;5092232;28;20293;-54
2023/03/06 05:07:06;;;;;;;17.73;11.97;;;5.80;99.90;;;;;;5092674;28;20588;-54
2023/03/06 05:09:34;;;;;;;15.90;10.27;;;5.80;99.90;;;;;;5092364;28;20224;-54
2023/03/06 05:12:01;;;;;;;16.70;9.77;;;5.80;99.90;;;;;;5092468;28;20208;-54
2023/03/06 05:14:29;;;;;;;16.70;9.60;;;5.90;99.90;;;;;;5092486;28;20220;-54
2023/03/06 05:16:57;;;;;;;15.93;10.07;;;5.90;99.90;;;;;;5092492;28;20231;-57
2023/03/06 05:19:24;;;;;;;15.37;9.30;;;5.90;99.90;;;;;;5092615;28;20699;-54
2023/03/06 05:21:51;;;;;;;16.80;9.93;;;5.90;99.90;;;;;;5092440;28;20227;-54
2023/03/06 05:24:18;;;;;;;22.77;13.90;;;5.90;99.90;;;;;;5092062;28;20235;-55
2023/03/06 05:26:44;;;;;;;15.23;11.07;;;5.90;99.90;;;;;;5092184;28;20227;-55
2023/03/06 05:29:11;;;;;;;13.37;9.13;;;5.90;99.90;;;;;;5092423;28;20582;-55
2023/03/06 05:31:38;;;;;;;28.97;18.87;;;5.90;99.90;;;;;;5092384;28;20208;-55
2023/03/06 05:34:06;;;;;;;23.87;13.53;;;6.00;99.90;;;;;;5092189;28;20230;-54
2023/03/06 05:36:33;;;;;;;16.70;10.07;;;6.00;99.90;;;;;;5092158;28;20207;-57
2023/03/06 05:39:00;;;;;;;13.27;9.10;;;5.90;99.90;;;;;;5092333;28;20215;-54
2023/03/06 05:41:27;;;;;;;15.97;9.47;;;6.00;99.90;;;;;;5092649;28;20232;-54
2023/03/06 05:43:55;;;;;;;13.37;8.80;;;6.00;99.90;;;;;;5092356;28;20240;-55
2023/03/06 05:46:22;;;;;;;14.50;8.70;;;6.00;99.90;;;;;;5092541;28;20200;-55
2023/03/06 05:48:51;;;;;;;16.90;9.50;;;6.10;99.90;;;;;;5092189;28;20245;-56
2023/03/06 05:51:19;;;;;;;17.73;10.80;;;6.10;99.90;;;;;;5092136;28;20232;-55
2023/03/06 05:53:46;;;;;;;16.07;8.93;;;6.10;99.90;;;;;;5091402;28;20259;-55
2023/03/06 05:56:13;;;;;;;11.50;8.10;;;6.10;99.90;;;;;;5092066;28;20209;-55
2023/03/06 05:58:40;;;;;;;12.07;8.63;;;6.10;99.90;;;;;;5092081;28;20208;-55
2023/03/06 06:01:12;;;;;;;13.93;9.10;;;6.00;99.90;;;;;;5091576;28;20319;-55
2023/03/06 06:03:39;;;;;;;13.23;9.10;;;6.10;99.90;;;;;;5091536;28;20232;-55
2023/03/06 06:06:07;;;;;;;10.97;7.73;;;6.00;99.90;;;;;;5091795;28;20237;-55
2023/03/06 06:08:35;;;;;;;12.70;8.17;;;6.00;99.90;;;;;;5092329;28;20204;-57
2023/03/06 06:11:04;;;;;;;15.63;9.30;;;6.00;99.90;;;;;;5091691;28;20572;-55
2023/03/06 06:13:31;;;;;;;13.70;9.27;;;6.10;99.90;;;;;;5091650;28;20204;-56
2023/03/06 06:15:58;;;;;;;22.47;11.17;;;6.10;99.90;;;;;;5091926;28;20212;-57
2023/03/06 06:18:25;;;;;;;13.10;7.97;;;6.10;99.90;;;;;;5092103;28;20255;-57
2023/03/06 06:20:51;;;;;;;13.23;8.50;;;6.20;99.90;;;;;;5095154;28;20235;-54
2023/03/06 06:23:18;;;;;;;13.10;8.10;;;6.20;99.90;;;;;;5096250;28;20231;-55
2023/03/06 06:25:46;;;;;;;20.10;8.47;;;6.20;99.90;;;;;;5096413;28;20208;-55
2023/03/06 06:28:13;;;;;;;14.17;9.47;;;6.20;99.90;;;;;;5096669;28;20322;-55
2023/03/06 06:30:40;;;;;;;17.33;9.07;;;6.30;99.90;;;;;;5096507;28;20249;-55
2023/03/06 06:33:07;;;;;;;15.33;9.20;;;6.30;99.90;;;;;;5095916;28;20208;-55
2023/03/06 06:35:36;;;;;;;16.50;9.17;;;6.30;99.90;;;;;;5096374;28;20293;-55
2023/03/06 06:38:03;;;;;;;17.20;8.37;;;6.40;99.90;;;;;;5095998;28;20229;-55
2023/03/06 06:40:30;;;;;;;15.17;8.07;;;6.40;99.90;;;;;;5095728;28;20220;-55
2023/03/06 06:42:58;;;;;;;13.57;7.73;;;6.40;99.90;;;;;;5095811;28;20769;-55
2023/03/06 06:45:25;;;;;;;22.53;8.67;;;6.50;99.90;;;;;;5095907;28;20224;-55
2023/03/06 06:47:52;;;;;;;15.77;8.87;;;6.50;99.90;;;;;;5096143;28;20196;-55
2023/03/06 06:50:19;;;;;;;16.57;8.67;;;6.50;99.90;;;;;;5097237;28;20702;-55
2023/03/06 06:52:46;;;;;;;13.23;7.43;;;6.50;99.90;;;;;;5096539;28;20611;-55
2023/03/06 06:55:14;;;;;;;12.60;8.07;;;6.60;99.90;;;;;;5096153;28;20723;-55
2023/03/06 06:57:41;;;;;;;13.27;7.47;;;6.70;99.90;;;;;;5096234;28;20224;-55
2023/03/06 07:00:13;;;;;;;11.10;7.80;;;6.80;99.90;;;;;;5095820;28;20200;-55
2023/03/06 07:02:40;;;;;;;13.70;7.43;;;6.80;99.90;;;;;;5095990;28;20285;-55
2023/03/06 07:05:08;;;;;;;16.50;8.13;;;6.90;99.90;;;;;;5095258;28;20315;-55
2023/03/06 07:07:37;;;;;;;13.83;7.50;;;7.00;99.90;;;;;;5095022;28;20214;-55
2023/03/06 07:10:05;;;;;;;12.90;7.67;;;7.00;99.90;;;;;;5094903;28;20214;-55
2023/03/06 07:12:33;;;;;;;16.50;8.20;;;7.10;99.90;;;;;;5095339;28;20238;-55
2023/03/06 07:15:00;;;;;;;13.43;8.17;;;7.20;99.90;;;;;;5094686;28;20255;-55
2023/03/06 07:17:28;;;;;;;20.80;9.20;;;7.30;99.90;;;;;;5094679;28;20203;-55
2023/03/06 07:19:55;;;;;;;18.60;8.67;;;7.40;99.90;;;;;;5094494;28;20208;-55
2023/03/06 07:22:22;;;;;;;26.27;17.23;;;7.50;99.90;;;;;;5094554;28;20231;-55
2023/03/06 07:24:49;;;;;;;13.23;7.67;;;7.50;99.90;;;;;;5094338;28;20715;-56
2023/03/06 07:27:15;;;;;;;12.73;8.13;;;7.50;99.90;;;;;;5094303;28;20204;-56
2023/03/06 07:29:43;;;;;;;17.70;8.60;;;7.50;99.90;;;;;;5094222;28;20207;-55
2023/03/06 07:32:10;;;;;;;12.60;8.00;;;7.50;99.90;;;;;;5093510;28;20211;-56
2023/03/06 07:34:39;;;;;;;13.30;8.27;;;7.60;99.90;;;;;;5094404;28;20224;-56
2023/03/06 07:37:05;;;;;;;13.37;8.10;;;7.60;99.90;;;;;;5094222;28;20203;-56
2023/03/06 07:39:32;;;;;;;15.63;8.13;;;7.60;99.90;;;;;;5094320;28;20200;-54
2023/03/06 07:41:59;;;;;;;11.83;8.27;;;7.60;99.90;;;;;;5093917;28;20220;-54
2023/03/06 07:44:26;;;;;;;16.57;8.20;;;7.50;99.90;;;;;;5094297;28;20220;-55
2023/03/06 07:46:53;;;;;;;12.53;7.77;;;7.60;99.90;;;;;;5093853;28;20230;-54
2023/03/06 07:49:20;;;;;;;11.97;7.43;;;7.60;99.90;;;;;;5093891;28;20207;-55
2023/03/06 07:51:48;;;;;;;14.60;6.73;;;7.60;99.90;;;;;;5094092;28;20200;-54
2023/03/06 07:54:15;;;;;;;13.00;7.97;;;7.70;99.90;;;;;;5093551;28;20246;-54
2023/03/06 07:56:42;;;;;;;13.23;7.73;;;7.80;99.90;;;;;;5093921;28;20295;-54
2023/03/06 07:59:10;;;;;;;11.03;7.80;;;7.90;99.90;;;;;;5094295;28;20208;-54
2023/03/06 08:01:39;;;;;;;13.50;7.50;;;8.00;99.90;;;;;;5093745;28;20224;-54
2023/03/06 08:04:05;;;;;;;13.27;7.67;;;8.00;99.90;;;;;;5093664;28;20239;-54
2023/03/06 08:06:32;;;;;;;10.77;7.60;;;8.10;99.90;;;;;;5093584;28;20227;-55
2023/03/06 08:09:01;;;;;;;11.60;7.63;;;8.10;99.90;;;;;;5093303;28;20299;-55
2023/03/06 08:11:30;;;;;;;13.17;7.53;;;8.20;99.90;;;;;;5093587;28;20200;-55
2023/03/06 08:13:57;;;;;;;10.23;7.43;;;8.30;99.90;;;;;;5093250;28;20239;-55
2023/03/06 08:16:28;;;;;;;13.23;7.77;;;8.50;99.90;;;;;;5093404;28;20212;-55
2023/03/06 08:18:55;;;;;;;10.87;7.03;;;8.60;99.90;;;;;;5093664;28;20215;-55
2023/03/06 08:21:24;;;;;;;10.73;6.93;;;8.80;99.90;;;;;;5093358;28;20252;-55
2023/03/06 08:23:51;;;;;;;12.80;7.70;;;8.80;99.90;;;;;;5092903;28;20700;-55
2023/03/06 08:26:21;;;;;;;12.10;7.50;;;9.00;99.90;;;;;;5093262;28;20591;-55
2023/03/06 08:28:50;;;;;;;11.50;6.80;;;9.10;99.90;;;;;;5093251;28;20255;-54
2023/03/06 08:31:25;;;;;;;11.97;6.90;;;9.10;99.90;;;;;;5093259;28;20575;-55
2023/03/06 08:33:52;;;;;;;10.20;7.10;;;9.20;99.90;;;;;;5092942;28;20233;-55
2023/03/06 08:36:19;;;;;;;10.43;7.37;;;9.20;99.90;;;;;;5092978;28;20262;-55
2023/03/06 08:38:46;;;;;;;9.13;6.60;;;9.30;99.90;;;;;;5093405;28;20212;-55
2023/03/06 08:41:13;;;;;;;10.97;6.60;;;9.40;99.90;;;;;;5093188;28;20320;-55
2023/03/06 08:43:41;;;;;;;8.53;6.50;;;9.40;99.90;;;;;;5093326;28;20232;-54
2023/03/06 08:46:10;;;;;;;12.37;7.03;;;9.60;99.90;;;;;;5092802;28;20210;-55
2023/03/06 08:48:37;;;;;;;9.17;6.40;;;9.60;99.90;;;;;;5093060;28;20583;-55
2023/03/06 08:51:04;;;;;;;10.07;6.40;;;9.70;99.90;;;;;;5092780;28;20204;-55
2023/03/06 08:53:31;;;;;;;8.90;6.97;;;10.00;99.90;;;;;;5092208;28;20654;-55
2023/03/06 08:55:58;;;;;;;8.50;6.23;;;10.10;99.90;;;;;;5093458;28;20251;-55
2023/03/06 08:58:25;;;;;;;8.33;6.40;;;10.40;99.90;;;;;;5093366;28;20215;-54
2023/03/06 09:00:54;;;;;;;11.20;6.70;;;10.40;99.90;;;;;;5092957;28;20589;-54
2023/03/06 09:03:22;;;;;;;8.10;6.67;;;10.50;99.90;;;;;;5092553;28;20282;-55
2023/03/06 09:05:49;;;;;;;10.10;7.43;;;10.60;99.90;;;;;;5093245;28;20204;-54
2023/03/06 09:08:15;;;;;;;9.00;6.63;;;10.60;99.90;;;;;;5092660;28;20743;-54
2023/03/06 09:10:46;;;;;;;8.67;6.67;;;10.50;99.90;;;;;;5092856;28;20214;-54
2023/03/06 09:13:13;;;;;;;9.27;7.20;;;10.30;99.90;;;;;;5092669;28;20763;-55
2023/03/06 09:15:40;;;;;;;11.37;7.03;;;10.00;99.90;;;;;;5092864;28;20231;-54
2023/03/06 09:18:08;;;;;;;8.53;6.80;;;9.90;99.90;;;;;;5092662;28;20297;-55
2023/03/06 09:20:35;;;;;;;11.53;7.20;;;9.90;99.90;;;;;;5092681;28;20238;-54
2023/03/06 09:23:02;;;;;;;16.97;7.23;;;10.10;99.90;;;;;;5092530;28;20255;-54
2023/03/06 09:25:28;;;;;;;10.77;6.83;;;10.30;99.90;;;;;;5092834;28;20238;-54
2023/03/06 09:27:55;;;;;;;7.63;6.07;;;10.40;99.90;;;;;;5092496;28;20215;-54
2023/03/06 09:30:22;;;;;;;10.53;7.07;;;10.30;99.90;;;;;;5092520;28;20204;-54
2023/03/06 09:32:49;;;;;;;9.17;7.00;;;10.30;99.90;;;;;;5092520;28;20227;-54
2023/03/06 09:35:17;;;;;;;8.90;6.73;;;10.30;99.90;;;;;;5092247;28;20231;-54
2023/03/06 09:37:44;;;;;;;10.53;7.07;;;10.30;99.90;;;;;;5092235;28;20204;-54
2023/03/06 09:40:18;;;;;;;8.67;6.87;;;10.20;99.90;;;;;;5092322;28;20465;-54
2023/03/06 09:42:45;;;;;;;9.47;7.13;;;10.10;99.90;;;;;;5092285;28;20224;-55
2023/03/06 09:45:13;;;;;;;10.37;6.90;;;9.90;99.90;;;;;;5091966;28;20223;-54
2023/03/06 09:47:50;;;;;;;9.93;6.63;;;9.50;99.90;;;;;;5092494;28;20204;-54
2023/03/06 09:50:37;;;;;;;10.57;7.43;;;9.30;99.90;;;;;;5092035;28;20218;-54
2023/03/06 09:53:15;;;;;;;10.00;7.50;;;9.20;99.90;;;;;;5091314;28;20200;-54
2023/03/06 09:55:43;;;;;;;9.57;7.03;;;8.90;99.90;;;;;;5094973;28;20240;-54
2023/03/06 09:58:15;;;;;;;10.37;7.03;;;8.90;99.90;;;;;;5096371;28;20208;-54
2023/03/06 10:00:48;;;;;;;8.77;6.90;;;9.20;99.90;;;;;;5096371;28;20207;-55
2023/03/06 10:03:22;;;;;;;9.77;6.93;;;9.30;99.90;;;;;;5096001;28;20220;-54
2023/03/06 10:05:53;;;;;;;9.50;7.00;;;9.40;99.90;;;;;;5095866;28;20222;-54
2023/03/06 10:08:24;;;;;;;8.73;6.40;;;9.30;99.90;;;;;;5096777;28;20224;-54
2023/03/06 10:10:58;;;;;;;7.93;6.23;;;9.10;99.90;;;;;;5096515;28;20295;-54
2023/03/06 10:13:28;;;;;;;8.10;6.50;;;9.10;99.90;;;;;;5095888;28;20433;-55
2023/03/06 10:16:06;;;;;;;9.37;7.00;;;9.10;99.90;;;;;;5095893;28;20235;-55
2023/03/06 10:18:37;;;;;;;9.67;6.57;;;9.20;99.90;;;;;;5096088;28;20603;-55
2023/03/06 10:21:20;;;;;;;8.03;6.17;;;9.20;99.90;;;;;;5095899;28;20286;-55
2023/03/06 10:23:53;;;;;;;12.07;6.90;;;9.20;99.90;;;;;;5095351;28;20289;-55
2023/03/06 10:26:22;;;;;;;8.63;6.37;;;9.30;99.90;;;;;;5095412;28;20196;-55
2023/03/06 10:29:00;;;;;;;8.90;7.67;;;9.40;99.90;;;;;;5095401;28;20227;-55
2023/03/06 10:31:28;;;;;;;9.40;7.00;;;9.40;99.90;;;;;;5095884;28;20200;-56
2023/03/06 10:33:57;;;;;;;8.47;6.50;;;9.60;99.90;;;;;;5095173;28;20297;-56
2023/03/06 10:36:28;;;;;;;11.13;7.50;;;9.60;99.90;;;;;;5095785;28;20211;-55
2023/03/06 10:38:57;;;;;;;9.63;7.23;;;9.40;99.90;;;;;;5095139;28;20211;-55
2023/03/06 10:41:27;;;;;;;13.43;7.67;;;9.60;99.90;;;;;;5095190;28;20239;-55
2023/03/06 10:44:20;;;;;;;10.00;7.30;;;9.70;99.90;;;;;;5095154;28;20224;-57
2023/03/06 10:46:48;;;;;;;16.20;7.43;;;9.70;99.90;;;;;;5095218;28;20630;-56
2023/03/06 10:49:31;;;;;;;8.70;6.60;;;9.60;99.90;;;;;;5095122;28;20212;-55
2023/03/06 10:52:02;;;;;;;8.93;6.80;;;9.60;99.90;;;;;;5095429;28;20200;-56
2023/03/06 10:54:31;;;;;;;9.80;7.70;;;9.70;99.90;;;;;;5094499;28;20232;-56
2023/03/06 10:56:57;;;;;;;7.70;6.57;;;9.70;99.90;;;;;;5095020;28;20686;-55
2023/03/06 10:59:27;;;;;;;10.53;6.73;;;10.00;99.90;;;;;;5095377;28;20234;-56
2023/03/06 11:01:56;;;;;;;8.40;6.87;;;10.00;99.90;;;;;;5094789;28;20235;-55
2023/03/06 11:04:26;;;;;;;8.47;6.70;;;10.20;99.90;;;;;;5094920;28;20596;-55
2023/03/06 11:07:14;;;;;;;9.93;6.47;;;10.40;99.90;;;;;;5093660;28;20215;-55
2023/03/06 11:09:42;;;;;;;9.27;7.20;;;10.40;99.90;;;;;;5095403;28;20389;-55
2023/03/06 11:12:22;;;;;;;8.67;6.73;;;10.40;99.90;;;;;;5094892;28;20200;-53
2023/03/06 11:15:08;;;;;;;7.83;6.03;;;10.50;99.90;;;;;;5094778;28;20251;-53
2023/03/06 11:17:37;;;;;;;8.90;6.53;;;10.70;99.90;;;;;;5095112;28;20235;-54
2023/03/06 11:20:23;;;;;;;8.50;6.50;;;10.90;99.90;;;;;;5094955;28;20221;-56
2023/03/06 11:22:55;;;;;;;9.53;6.27;;;11.00;99.90;;;;;;5094468;28;20260;-54
2023/03/06 11:25:28;;;;;;;7.77;6.27;;;11.00;99.90;;;;;;5094078;28;20224;-55
2023/03/06 11:27:59;;;;;;;8.90;6.30;;;10.90;99.90;;;;;;5094791;28;20212;-55
2023/03/06 11:30:32;;;;;;;8.57;6.17;;;10.80;99.90;;;;;;5094563;28;20291;-54
2023/03/06 11:33:03;;;;;;;12.97;7.90;;;10.80;99.90;;;;;;5094568;28;20205;-55
2023/03/06 11:35:34;;;;;;;8.23;6.40;;;10.90;99.90;;;;;;5094089;28;20611;-54
2023/03/06 11:38:11;;;;;;;8.63;6.17;;;11.20;99.70;;;;;;5094280;28;20255;-55
2023/03/06 11:40:44;;;;;;;8.63;6.50;;;11.40;99.30;;;;;;5094093;28;20282;-54
2023/03/06 11:43:19;;;;;;;8.70;6.27;;;11.60;98.80;;;;;;5093832;28;20703;-55
2023/03/06 11:45:51;;;;;;;7.43;6.00;;;11.80;98.70;;;;;;5093752;28;20662;-54
2023/03/06 11:48:27;;;;;;;8.63;6.03;;;11.90;98.00;;;;;;5093610;28;20239;-55
2023/03/06 11:51:02;;;;;;;8.80;6.60;;;12.20;98.00;;;;;;5093607;28;20652;-55
2023/03/06 11:53:34;;;;;;;7.87;6.10;;;12.50;97.20;;;;;;5093349;28;20286;-56
2023/03/06 11:56:21;;;;;;;8.17;5.93;;;12.50;96.20;;;;;;5094168;28;20250;-56
2023/03/06 11:59:00;;;;;;;9.03;6.57;;;12.60;96.40;;;;;;5093667;28;20214;-55
2023/03/06 12:01:32;;;;;;;10.03;6.80;;;12.40;96.30;;;;;;5093406;28;20686;-56
2023/03/06 12:04:30;;;;;;;7.90;6.00;;;12.30;96.10;;;;;;5093547;28;20232;-56
2023/03/06 12:07:10;;;;;;;9.53;6.93;;;12.30;96.00;;;;;;5093578;28;20219;-56
2023/03/06 12:09:46;;;;;;;8.03;6.07;;;12.30;96.20;;;;;;5093549;28;20200;-56
2023/03/06 12:12:26;;;;;;;9.90;6.47;;;12.30;96.30;;;;;;5093456;28;20671;-56
2023/03/06 12:15:04;;;;;;;7.20;6.07;;;12.10;96.70;;;;;;5093024;28;20230;-56
2023/03/06 12:17:47;;;;;;;7.63;6.07;;;12.00;96.70;;;;;;5093175;28;20214;-56
2023/03/06 12:20:32;;;;;;;7.60;6.27;;;12.00;96.80;;;;;;5092974;28;20214;-55
2023/03/06 12:23:04;;;;;;;7.70;6.43;;;12.20;96.50;;;;;;5093149;28;20247;-56
2023/03/06 12:25:38;;;;;;;8.23;6.27;;;12.20;96.50;;;;;;5092670;28;20228;-55
2023/03/06 12:28:31;;;;;;;7.67;6.00;;;12.30;96.20;;;;;;5093281;28;20203;-54
2023/03/06 12:31:32;;;;;;;7.13;5.83;;;12.40;96.10;;;;;;5093154;28;20208;-56
2023/03/06 12:34:14;;;;;;;7.77;5.73;;;12.20;95.80;;;;;;5092846;28;20220;-55
2023/03/06 12:36:50;;;;;;;11.50;6.27;;;12.00;95.90;;;;;;5093472;28;20212;-55
2023/03/06 12:39:27;;;;;;;9.73;7.23;;;12.00;96.20;;;;;;5093266;28;20208;-54
2023/03/06 12:42:19;;;;;;;12.77;7.63;;;11.90;97.00;;;;;;5092920;28;20216;-56
2023/03/06 12:45:04;;;;;;;11.53;7.77;;;11.80;97.40;;;;;;5092581;28;20223;-59
2023/03/06 12:47:37;;;;;;;10.70;8.33;;;11.70;97.50;;;;;;5093201;28;20192;-55
2023/03/06 12:50:13;;;;;;;9.83;7.33;;;11.50;98.10;;;;;;5092540;28;20262;-53
2023/03/06 12:52:41;;;;;;;10.23;7.50;;;11.20;97.90;;;;;;5092808;28;20261;-56
2023/03/06 12:55:16;;;;;;;12.30;7.33;;;10.90;98.40;;;;;;5092458;28;20260;-55